Milwaukee, Wisconsin
Traffic Map
Current Weather Conditions
Milwaukee, Wisconsin
Few Clouds
Few Clouds
84°
Feels Like: 86°
Wind Chill: 84° Ceiling: Unl
Heat Index: 86° Visibility: 10mi
Dew Point: 66° Wind: 16mph
Humidity: 55% Direction: 160° (SSE)
Pressure: 29.97in Gusts: 0mph
Raw Report DataKMKE 252252Z 16014KT 10SM FEW040 FEW200 29/19 A2997 RMK AO2 SLP144 T02890189
Traffic Incident Summary
Active as of:
Severity:
Category:
InformationThere was an issue retrieving the traffic information for this location. Please try a different location or try again shortly.
Advertisements
Track Severe Weather on mobile